Time,TemperatureF,DewpointF,PressureIn,WindDirection,WindDirectionDegrees,WindSpeedMPH,WindSpeedGustMPH,Humidity,HourlyPrecipIn,Conditions,Clouds,dailyrainin,SolarRadiationWatts/m^2,SoftwareType,DateUTC
2013-04-20 00:12:00,40.0,24.0,-100.00,West,276,6.0,13.0,52,0.00,,,0.00,0.000000,,2013-04-20 06:12:00,
2013-04-20 00:21:00,40.0,24.0,-100.00,West,276,6.0,13.0,52,0.00,,,0.00,0.000000,,2013-04-20 06:21:00,
2013-04-20 00:31:00,40.0,24.0,-100.00,West,276,6.0,13.0,52,0.00,,,0.00,0.000000,,2013-04-20 06:31:00,
2013-04-20 00:42:00,40.0,24.0,-100.00,West,276,6.0,13.0,52,0.00,,,0.00,0.000000,,2013-04-20 06:42:00,
2013-04-20 01:11:00,39.0,24.0,-100.00,WSW,248,4.0,9.0,54,0.00,,,-99.99,0.000000,,2013-04-20 07:11:00,
2013-04-20 01:21:00,39.0,24.0,-100.00,WSW,248,4.0,9.0,54,0.00,,,-99.99,0.000000,,2013-04-20 07:21:00,
2013-04-20 01:32:00,39.0,24.0,-100.00,WSW,248,4.0,9.0,54,0.00,,,-99.99,0.000000,,2013-04-20 07:32:00,
2013-04-20 01:42:00,39.0,24.0,-100.00,WSW,248,4.0,9.0,54,0.00,,,-99.99,0.000000,,2013-04-20 07:42:00,
2013-04-20 02:11:00,37.0,24.0,-100.00,South,188,7.0,8.0,59,0.00,,,0.00,0.000000,,2013-04-20 08:11:00,
2013-04-20 02:21:00,37.0,24.0,-100.00,South,188,7.0,8.0,59,0.00,,,0.00,0.000000,,2013-04-20 08:21:00,
2013-04-20 02:31:00,37.0,24.0,-100.00,South,188,7.0,8.0,59,0.00,,,0.00,0.000000,,2013-04-20 08:31:00,
2013-04-20 02:42:00,37.0,24.0,-100.00,South,188,7.0,8.0,59,0.00,,,0.00,0.000000,,2013-04-20 08:42:00,
2013-04-20 03:12:00,36.0,23.0,-100.00,South,183,6.0,8.0,60,0.00,,,0.00,0.000000,,2013-04-20 09:12:00,
2013-04-20 03:21:00,36.0,23.0,-100.00,South,183,6.0,8.0,60,0.00,,,0.00,0.000000,,2013-04-20 09:21:00,
2013-04-20 03:32:00,36.0,23.0,-100.00,South,183,6.0,8.0,60,0.00,,,0.00,0.000000,,2013-04-20 09:32:00,
2013-04-20 03:43:00,36.0,23.0,-100.00,South,183,6.0,8.0,60,0.00,,,0.00,0.000000,,2013-04-20 09:43:00,
2013-04-20 04:12:00,40.0,23.0,-100.00,WSW,249,6.0,11.0,50,0.00,,,0.00,0.000000,,2013-04-20 10:12:00,
2013-04-20 04:23:00,40.0,23.0,-100.00,WSW,249,6.0,11.0,50,0.00,,,0.00,0.000000,,2013-04-20 10:23:00,
2013-04-20 04:33:00,40.0,23.0,-100.00,WSW,249,6.0,11.0,50,0.00,,,0.00,0.000000,,2013-04-20 10:33:00,
2013-04-20 04:42:00,40.0,23.0,-100.00,WSW,249,6.0,11.0,50,0.00,,,0.00,0.000000,,2013-04-20 10:42:00,
2013-04-20 05:23:00,36.0,26.0,-100.00,South,176,0.0,15.0,68,0.00,,,0.00,0.000000,,2013-04-20 11:23:00,
2013-04-20 05:32:00,36.0,26.0,-100.00,South,176,0.0,15.0,68,0.00,,,0.00,0.000000,,2013-04-20 11:32:00,
2013-04-20 05:42:00,36.0,26.0,-100.00,South,176,0.0,15.0,68,0.00,,,0.00,0.000000,,2013-04-20 11:42:00,
2013-04-20 06:11:00,34.0,27.0,-100.00,South,175,6.0,7.0,74,0.00,,,0.00,0.000000,,2013-04-20 12:11:00,
2013-04-20 06:22:00,34.0,27.0,-100.00,South,175,6.0,7.0,74,0.00,,,0.00,0.000000,,2013-04-20 12:22:00,
2013-04-20 06:32:00,34.0,27.0,-100.00,South,175,6.0,7.0,74,0.00,,,0.00,0.000000,,2013-04-20 12:32:00,
2013-04-20 06:41:00,34.0,27.0,-100.00,South,175,6.0,7.0,74,0.00,,,0.00,0.000000,,2013-04-20 12:41:00,
2013-04-20 07:11:00,33.0,26.0,-100.00,SSE,166,4.0,7.0,76,0.00,,,0.00,4.000000,,2013-04-20 13:11:00,
2013-04-20 07:21:00,33.0,26.0,-100.00,SSE,166,4.0,7.0,76,0.00,,,0.00,4.000000,,2013-04-20 13:21:00,
2013-04-20 07:31:00,33.0,26.0,-100.00,SSE,166,4.0,7.0,76,0.00,,,0.00,4.000000,,2013-04-20 13:31:00,
2013-04-20 07:42:00,33.0,26.0,-100.00,SSE,166,4.0,7.0,76,0.00,,,0.00,4.000000,,2013-04-20 13:42:00,
2013-04-20 08:11:00,37.0,26.0,-100.00,West,263,2.0,4.0,65,0.00,,,0.00,52.000000,,2013-04-20 14:11:00,
2013-04-20 08:21:00,37.0,26.0,-100.00,West,263,2.0,4.0,65,0.00,,,0.00,52.000000,,2013-04-20 14:21:00,
2013-04-20 08:31:00,37.0,26.0,-100.00,West,263,2.0,4.0,65,0.00,,,0.00,52.000000,,2013-04-20 14:31:00,
2013-04-20 08:42:00,37.0,26.0,-100.00,West,263,2.0,4.0,65,0.00,,,0.00,52.000000,,2013-04-20 14:42:00,
2013-04-20 09:11:00,39.0,26.0,-100.00,WNW,295,5.0,10.0,60,0.00,,,0.00,127.000000,,2013-04-20 15:11:00,
2013-04-20 09:21:00,39.0,26.0,-100.00,WNW,295,5.0,10.0,60,0.00,,,0.00,127.000000,,2013-04-20 15:21:00,
2013-04-20 09:33:00,39.0,26.0,-100.00,WNW,295,5.0,10.0,60,0.00,,,0.00,127.000000,,2013-04-20 15:33:00,
2013-04-20 09:43:00,39.0,26.0,-100.00,WNW,295,5.0,10.0,60,0.00,,,0.00,127.000000,,2013-04-20 15:43:00,
2013-04-20 10:12:00,41.0,29.0,-100.00,West,277,8.0,15.0,62,0.00,,,0.00,203.000000,,2013-04-20 16:12:00,
2013-04-20 10:23:00,41.0,29.0,-100.00,West,277,8.0,15.0,62,0.00,,,0.00,203.000000,,2013-04-20 16:23:00,
2013-04-20 10:32:00,41.0,29.0,-100.00,West,277,8.0,15.0,62,0.00,,,0.00,203.000000,,2013-04-20 16:32:00,
2013-04-20 10:42:00,41.0,29.0,-100.00,West,277,8.0,15.0,62,0.00,,,0.00,203.000000,,2013-04-20 16:42:00,
2013-04-20 11:12:00,37.0,33.0,-100.00,West,276,6.0,13.0,86,0.00,,,0.00,234.000000,,2013-04-20 17:12:00,
2013-04-20 11:22:00,37.0,33.0,-100.00,West,276,6.0,13.0,86,0.00,,,0.00,234.000000,,2013-04-20 17:22:00,
2013-04-20 11:32:00,37.0,33.0,-100.00,West,276,6.0,13.0,86,0.00,,,0.00,234.000000,,2013-04-20 17:32:00,
2013-04-20 11:42:00,37.0,33.0,-100.00,West,276,6.0,13.0,86,0.00,,,0.00,234.000000,,2013-04-20 17:42:00,
2013-04-20 12:12:00,40.0,35.0,-100.00,SW,235,4.0,8.0,81,0.00,,,0.00,411.000000,,2013-04-20 18:12:00,
2013-04-20 12:22:00,40.0,35.0,-100.00,SW,235,4.0,8.0,81,0.00,,,0.00,411.000000,,2013-04-20 18:22:00,
2013-04-20 12:32:00,40.0,35.0,-100.00,SW,235,4.0,8.0,81,0.00,,,0.00,411.000000,,2013-04-20 18:32:00,
2013-04-20 12:41:00,40.0,35.0,-100.00,SW,235,4.0,8.0,81,0.00,,,0.00,411.000000,,2013-04-20 18:41:00,
2013-04-20 13:11:00,42.0,34.0,-100.00,WNW,285,7.0,11.0,74,0.00,,,0.00,467.000000,,2013-04-20 19:11:00,
2013-04-20 13:21:00,42.0,34.0,-100.00,WNW,285,7.0,11.0,74,0.00,,,0.00,467.000000,,2013-04-20 19:21:00,
2013-04-20 13:31:00,42.0,34.0,-100.00,WNW,285,7.0,11.0,74,0.00,,,0.00,467.000000,,2013-04-20 19:31:00,
2013-04-20 13:42:00,42.0,34.0,-100.00,WNW,285,7.0,11.0,74,0.00,,,0.00,467.000000,,2013-04-20 19:42:00,
2013-04-20 14:12:00,47.0,34.0,-100.00,West,271,7.0,15.0,61,0.00,,,0.00,878.000000,,2013-04-20 20:12:00,
2013-04-20 14:21:00,47.0,34.0,-100.00,West,271,7.0,15.0,61,0.00,,,0.00,878.000000,,2013-04-20 20:21:00,
2013-04-20 14:32:00,47.0,34.0,-100.00,West,271,7.0,15.0,61,0.00,,,0.00,878.000000,,2013-04-20 20:32:00,
2013-04-20 14:42:00,47.0,34.0,-100.00,West,271,7.0,15.0,61,0.00,,,0.00,878.000000,,2013-04-20 20:42:00,
2013-04-20 15:12:00,47.0,33.0,-100.00,WNW,293,6.0,15.0,59,0.00,,,0.00,649.000000,,2013-04-20 21:12:00,
2013-04-20 15:21:00,47.0,33.0,-100.00,WNW,293,6.0,15.0,59,0.00,,,0.00,649.000000,,2013-04-20 21:21:00,
2013-04-20 15:32:00,47.0,33.0,-100.00,WNW,293,6.0,15.0,59,0.00,,,0.00,649.000000,,2013-04-20 21:32:00,
2013-04-20 15:43:00,47.0,33.0,-100.00,WNW,293,6.0,15.0,59,0.00,,,0.00,649.000000,,2013-04-20 21:43:00,
2013-04-20 16:12:00,47.0,34.0,-100.00,WNW,303,8.0,15.0,61,0.00,,,0.00,473.000000,,2013-04-20 22:12:00,
2013-04-20 16:22:00,47.0,34.0,-100.00,WNW,303,8.0,15.0,61,0.00,,,0.00,473.000000,,2013-04-20 22:22:00,
2013-04-20 16:32:00,47.0,34.0,-100.00,WNW,303,8.0,15.0,61,0.00,,,0.00,473.000000,,2013-04-20 22:32:00,
2013-04-20 16:42:00,47.0,34.0,-100.00,WNW,303,8.0,15.0,61,0.00,,,0.00,473.000000,,2013-04-20 22:42:00,
2013-04-20 17:11:00,47.0,31.0,-100.00,NW,309,8.0,18.0,54,0.00,,,0.00,583.000000,,2013-04-20 23:11:00,
2013-04-20 17:22:00,47.0,31.0,-100.00,NW,309,8.0,18.0,54,0.00,,,0.00,583.000000,,2013-04-20 23:22:00,
2013-04-20 17:32:00,47.0,31.0,-100.00,NW,309,8.0,18.0,54,0.00,,,0.00,583.000000,,2013-04-20 23:32:00,
2013-04-20 17:41:00,47.0,31.0,-100.00,NW,309,8.0,18.0,54,0.00,,,0.00,583.000000,,2013-04-20 23:41:00,
2013-04-20 18:11:00,47.0,33.0,-100.00,SW,225,9.0,17.0,59,0.00,,,0.00,286.000000,,2013-04-21 00:11:00,
2013-04-20 18:21:00,47.0,33.0,-100.00,SW,225,9.0,17.0,59,0.00,,,0.00,286.000000,,2013-04-21 00:21:00,
2013-04-20 18:32:00,47.0,33.0,-100.00,SW,225,9.0,17.0,59,0.00,,,0.00,286.000000,,2013-04-21 00:32:00,
2013-04-20 18:41:00,47.0,33.0,-100.00,SW,225,9.0,17.0,59,0.00,,,0.00,286.000000,,2013-04-21 00:41:00,
2013-04-20 19:11:00,50.0,30.0,-100.00,NW,325,3.0,14.0,46,0.00,,,0.00,248.000000,,2013-04-21 01:11:00,
2013-04-20 19:21:00,50.0,30.0,-100.00,NW,325,3.0,14.0,46,0.00,,,0.00,248.000000,,2013-04-21 01:21:00,
2013-04-20 19:31:00,50.0,30.0,-100.00,NW,325,3.0,14.0,46,0.00,,,0.00,248.000000,,2013-04-21 01:31:00,
2013-04-20 19:41:00,50.0,30.0,-100.00,NW,325,3.0,14.0,46,0.00,,,0.00,248.000000,,2013-04-21 01:41:00,
2013-04-20 20:11:00,42.0,33.0,-100.00,SE,133,5.0,22.0,71,0.00,,,0.00,114.000000,,2013-04-21 02:11:00,
2013-04-20 20:21:00,42.0,33.0,-100.00,SE,133,5.0,22.0,71,0.00,,,0.00,114.000000,,2013-04-21 02:21:00,
2013-04-20 20:31:00,42.0,33.0,-100.00,SE,133,5.0,22.0,71,0.00,,,0.00,114.000000,,2013-04-21 02:31:00,
2013-04-20 20:41:00,42.0,33.0,-100.00,SE,133,5.0,22.0,71,0.00,,,0.00,114.000000,,2013-04-21 02:41:00,
2013-04-20 21:11:00,38.0,32.0,-100.00,ESE,118,6.0,9.0,80,0.00,,,0.00,2.000000,,2013-04-21 03:11:00,
2013-04-20 21:21:00,38.0,32.0,-100.00,ESE,118,6.0,9.0,80,0.00,,,0.00,2.000000,,2013-04-21 03:21:00,
2013-04-20 21:32:00,38.0,32.0,-100.00,ESE,118,6.0,9.0,80,0.00,,,0.00,2.000000,,2013-04-21 03:32:00,
2013-04-20 21:42:00,38.0,32.0,-100.00,ESE,118,6.0,9.0,80,0.00,,,0.00,2.000000,,2013-04-21 03:42:00,
2013-04-20 22:12:00,40.0,28.0,-100.00,West,273,4.0,8.0,62,0.00,,,0.00,0.000000,,2013-04-21 04:12:00,
2013-04-20 22:22:00,40.0,28.0,-100.00,West,273,4.0,8.0,62,0.00,,,0.00,0.000000,,2013-04-21 04:22:00,
2013-04-20 22:33:00,40.0,28.0,-100.00,West,273,4.0,8.0,62,0.00,,,0.00,0.000000,,2013-04-21 04:33:00,
2013-04-20 22:42:00,40.0,28.0,-100.00,West,273,4.0,8.0,62,0.00,,,0.00,0.000000,,2013-04-21 04:42:00,
2013-04-20 23:12:00,36.0,29.0,-100.00,NNE,28,0.0,3.0,76,0.00,,,0.00,0.000000,,2013-04-21 05:12:00,
2013-04-20 23:22:00,36.0,29.0,-100.00,NNE,28,0.0,3.0,76,0.00,,,0.00,0.000000,,2013-04-21 05:22:00,
2013-04-20 23:32:00,36.0,29.0,-100.00,NNE,28,0.0,3.0,76,0.00,,,0.00,0.000000,,2013-04-21 05:32:00,
2013-04-20 23:42:00,36.0,29.0,-100.00,NNE,28,0.0,3.0,76,0.00,,,0.00,0.000000,,2013-04-21 05:42:00,